Terminal Aerodrome Forecast
Issued by NWS

Home | Current Version | Previous Version | Text Only | Print | Product List | Glossary On
Versions: 1 2 3 4 5 6 7 8 9 10 11 12 13 14 15 16 17 18 19 20 21 22 23 24 25 26 27 28 29 30 31
000
FTUS41 KGYX 011720
TAFMHT
TAF
KMHT 011720Z 0118/0218 VRB03KT P6SM OVC050
     FM012300 19005KT P6SM -SN OVC025
     FM020100 19005KT 1 1/2SM -SN BR OVC015
     FM020500 VRB03KT 4SM BR OVC025
     FM020800 27005KT P6SM BKN045
     FM021400 30013G23KT P6SM SCT045=

USA.gov is the U.S. government's official web portal to all federal, state and local government web resources and services.